De Peyster, New York
Current Conditions -  °F | °C
As of 8:14 PM on Thursday 18 Dec 2014 (Local Time) from KGTB Reporting Station
Freezing Rain Freezing Rain  
Wind Chill: 17°   Ceiling: 400
Heat Index: 25°   Visibility: 5mi
Dew Point: 23°   Wind: 7mph
Humidity: 93%   Direction: 330°NNW
Pressure: 30"   Gusts: NA
Location:  44.55°N, 75.43°W
Report Text: KGTB 190114Z AUTO 33006KT 5SM -FZRA BR BKN004 OVC010 M04/M05 A3000 RMK AO2 RAB0104UPE0104 CIG 004V006
Loading
Personal Weather Stations






























Interactive Weather Map New forecast layout! Learn more

10-Day Weather Forecast

Advertisements
Track Severe Weather on mobile